Time;durP1;ratioP1;P1;durP2;ratioP2;P2;SDS_P1;SDS_P2;PMS_P1;PMS_P2;Temp;Humidity;BMP_temperature;BMP_pressure;BME280_temperature;BME280_humidity;BME280_pressure;Samples;Min_cycle;Max_cycle;Signal;HPM_P1;HPM_P2
2022/06/11 00:01:53;;;;;;;7.23;6.70;;;20.10;99.90;;;;;;5072025;28;20171;-66
2022/06/11 00:04:27;;;;;;;7.83;7.23;;;20.10;99.90;;;;;;5069846;28;20445;-66
2022/06/11 00:06:59;;;;;;;6.47;6.07;;;20.10;99.90;;;;;;5072211;28;20279;-66
2022/06/11 00:09:25;;;;;;;5.47;5.00;;;20.10;99.90;;;;;;5051797;28;20293;-66
2022/06/11 00:11:51;;;;;;;6.47;5.70;;;20.10;99.90;;;;;;5052005;28;20175;-66
2022/06/11 00:14:23;;;;;;;7.33;6.80;;;20.10;99.90;;;;;;5070603;28;20227;-65
2022/06/11 00:16:50;;;;;;;5.87;5.47;;;20.00;99.90;;;;;;5072064;28;20599;-66
2022/06/11 00:19:18;;;;;;;8.23;5.27;;;20.00;99.90;;;;;;5053384;28;20186;-66
2022/06/11 00:21:45;;;;;;;5.80;5.30;;;20.00;99.90;;;;;;5051989;28;20175;-66
2022/06/11 00:24:11;;;;;;;7.03;5.03;;;20.00;99.90;;;;;;5068230;28;20209;-65
2022/06/11 00:26:39;;;;;;;5.10;4.60;;;20.00;99.90;;;;;;5071785;28;20210;-65
2022/06/11 00:29:05;;;;;;;4.63;4.33;;;20.00;99.90;;;;;;5055879;28;20195;-65
2022/06/11 00:31:32;;;;;;;4.87;4.53;;;20.00;99.90;;;;;;5051806;28;20178;-65
2022/06/11 00:33:57;;;;;;;5.33;4.80;;;19.90;99.90;;;;;;5065295;28;20186;-66
2022/06/11 00:36:24;;;;;;;9.70;6.00;;;19.90;99.90;;;;;;5071621;28;20190;-65
2022/06/11 00:38:50;;;;;;;6.07;5.47;;;20.00;99.90;;;;;;5053853;28;20174;-66
2022/06/11 00:41:18;;;;;;;5.87;5.37;;;20.00;99.90;;;;;;5051594;28;20236;-65
2022/06/11 00:43:43;;;;;;;5.57;5.17;;;20.00;99.90;;;;;;5067375;28;20184;-66
2022/06/11 00:46:39;;;;;;;8.10;6.13;;;20.10;99.90;;;;;;5071437;28;20545;-65
2022/06/11 00:49:29;;;;;;;6.37;5.17;;;20.10;99.90;;;;;;5052471;28;20206;-66
2022/06/11 00:52:18;;;;;;;7.90;5.17;;;20.00;99.90;;;;;;5043089;28;20190;-66
2022/06/11 00:54:52;;;;;;;5.57;4.97;;;20.00;99.90;;;;;;5069510;28;20669;-64
2022/06/11 00:57:18;;;;;;;5.53;4.43;;;20.00;99.90;;;;;;5051371;28;20240;-67
2022/06/11 00:59:50;;;;;;;9.13;5.23;;;20.00;99.90;;;;;;5052349;28;20175;-67
2022/06/11 01:02:15;;;;;;;5.27;4.97;;;20.00;99.90;;;;;;5031792;28;20203;-66
2022/06/11 01:04:53;;;;;;;5.93;5.30;;;20.00;99.90;;;;;;5032169;28;20265;-65
2022/06/11 01:07:18;;;;;;;9.23;5.17;;;20.00;99.90;;;;;;5031769;28;20218;-66
2022/06/11 01:09:53;;;;;;;4.80;4.23;;;19.90;99.90;;;;;;5031689;28;20277;-66
2022/06/11 01:12:51;;;;;;;5.17;4.77;;;19.90;99.90;;;;;;5031365;28;20167;-64
2022/06/11 01:15:30;;;;;;;6.40;5.90;;;19.90;99.90;;;;;;5040745;28;20523;-67
2022/06/11 01:18:15;;;;;;;6.03;5.30;;;19.90;99.90;;;;;;5077829;28;20190;-66
2022/06/11 01:20:58;;;;;;;6.20;5.30;;;19.80;99.90;;;;;;5071175;28;20725;-65
2022/06/11 01:23:38;;;;;;;7.43;5.57;;;19.80;99.90;;;;;;5063465;28;20537;-65
2022/06/11 01:26:34;;;;;;;9.57;5.40;;;19.70;99.90;;;;;;5077496;28;20721;-65
2022/06/11 01:29:25;;;;;;;6.07;5.53;;;19.70;99.90;;;;;;5066886;28;20186;-66
2022/06/11 01:32:17;;;;;;;6.20;5.70;;;19.70;99.90;;;;;;5057769;28;20158;-65
2022/06/11 01:34:49;;;;;;;5.73;5.13;;;19.70;99.90;;;;;;5072973;28;20311;-64
2022/06/11 01:37:22;;;;;;;6.23;5.57;;;19.70;99.90;;;;;;5077668;28;20190;-66
2022/06/11 01:39:50;;;;;;;7.13;5.13;;;19.70;99.90;;;;;;5060030;28;20692;-65
2022/06/11 01:42:24;;;;;;;5.60;4.50;;;19.70;99.90;;;;;;5058580;28;20292;-65
2022/06/11 01:45:00;;;;;;;4.83;4.43;;;19.70;99.90;;;;;;5057394;28;20198;-65
2022/06/11 01:47:26;;;;;;;6.67;5.77;;;19.60;99.90;;;;;;5070103;28;20194;-66
2022/06/11 01:49:52;;;;;;;7.07;5.60;;;19.70;99.90;;;;;;5077361;28;20201;-65
2022/06/11 01:52:36;;;;;;;5.30;5.00;;;19.60;99.90;;;;;;5075969;28;20188;-65
2022/06/11 01:55:13;;;;;;;5.80;5.20;;;19.70;99.90;;;;;;5077290;28;20162;-65
2022/06/11 01:58:00;;;;;;;5.90;5.43;;;19.60;99.90;;;;;;5061423;28;20699;-67
2022/06/11 02:00:34;;;;;;;5.33;4.87;;;19.50;99.90;;;;;;5057489;28;20711;-65
2022/06/11 02:03:12;;;;;;;5.23;4.90;;;19.50;99.90;;;;;;5075259;28;20189;-65
2022/06/11 02:06:00;;;;;;;6.53;4.77;;;19.50;99.90;;;;;;5077036;28;20174;-66
2022/06/11 02:08:32;;;;;;;10.10;4.80;;;19.50;99.90;;;;;;5007628;28;20202;-65
2022/06/11 02:11:03;;;;;;;6.50;5.87;;;19.50;99.90;;;;;;5037867;28;20561;-66
2022/06/11 02:13:38;;;;;;;5.80;5.30;;;19.40;99.90;;;;;;5077139;28;20576;-65
2022/06/11 02:16:25;;;;;;;5.67;5.17;;;19.40;99.90;;;;;;5076607;28;20170;-65
2022/06/11 02:18:52;;;;;;;6.13;5.53;;;19.40;99.90;;;;;;5058168;28;20170;-65
2022/06/11 02:21:26;;;;;;;5.97;5.47;;;19.30;99.90;;;;;;5077280;28;20705;-64
2022/06/11 02:24:04;;;;;;;6.83;5.77;;;19.40;99.90;;;;;;5074390;28;20178;-66
2022/06/11 02:26:35;;;;;;;6.03;5.47;;;19.40;99.90;;;;;;5044320;28;20692;-65
2022/06/11 02:29:03;;;;;;;6.80;6.30;;;19.40;99.90;;;;;;5033632;28;20677;-67
2022/06/11 02:31:32;;;;;;;5.93;5.43;;;19.40;99.90;;;;;;5036350;28;20167;-67
2022/06/11 02:34:05;;;;;;;6.40;5.90;;;19.30;99.90;;;;;;5073839;28;20212;-65
2022/06/11 02:36:43;;;;;;;5.30;4.90;;;19.30;99.90;;;;;;5072890;28;20190;-66
2022/06/11 02:39:09;;;;;;;5.97;4.77;;;19.30;99.90;;;;;;5053819;28;20174;-66
2022/06/11 02:41:35;;;;;;;5.93;5.50;;;19.20;99.90;;;;;;5054321;28;20244;-66
2022/06/11 02:44:01;;;;;;;5.60;4.90;;;19.10;99.90;;;;;;5073518;28;20190;-66
2022/06/11 02:46:43;;;;;;;7.03;5.20;;;19.00;99.90;;;;;;5073710;28;20214;-66
2022/06/11 02:49:21;;;;;;;5.97;5.40;;;19.00;99.90;;;;;;5033660;28;20213;-65
2022/06/11 02:51:50;;;;;;;5.73;5.00;;;18.80;99.90;;;;;;5054028;28;20193;-65
2022/06/11 02:54:16;;;;;;;8.53;5.50;;;18.70;99.90;;;;;;5053222;28;20515;-66
2022/06/11 02:56:44;;;;;;;7.50;5.23;;;18.70;99.90;;;;;;5070928;28;20198;-66
2022/06/11 02:59:11;;;;;;;7.60;4.90;;;18.70;99.90;;;;;;5073336;28;20174;-65
2022/06/11 03:01:37;;;;;;;5.97;5.17;;;18.60;99.90;;;;;;5056982;28;20592;-66
2022/06/11 03:04:03;;;;;;;10.17;4.90;;;18.60;99.90;;;;;;5053055;28;20539;-65
2022/06/11 03:06:29;;;;;;;5.90;5.30;;;18.60;99.90;;;;;;5067738;28;20255;-65
2022/06/11 03:08:57;;;;;;;6.50;5.90;;;18.50;99.90;;;;;;5073474;28;20166;-66
2022/06/11 03:11:23;;;;;;;6.10;5.60;;;18.40;99.90;;;;;;5059792;28;20181;-65
2022/06/11 03:13:49;;;;;;;6.23;5.47;;;18.40;99.90;;;;;;5052944;28;20194;-64
2022/06/11 03:16:15;;;;;;;8.17;6.47;;;18.30;99.90;;;;;;5054034;28;20179;-66
2022/06/11 03:18:41;;;;;;;7.30;6.57;;;18.20;99.90;;;;;;5053302;28;20175;-66
2022/06/11 03:21:07;;;;;;;7.93;6.27;;;18.10;99.90;;;;;;5065346;28;20260;-66
2022/06/11 03:23:33;;;;;;;7.33;6.73;;;18.00;99.90;;;;;;5072894;28;20332;-66
2022/06/11 03:26:00;;;;;;;6.50;6.00;;;17.90;99.90;;;;;;5062196;28;20222;-66
2022/06/11 03:28:28;;;;;;;9.33;5.40;;;17.80;99.90;;;;;;5053072;28;20702;-66
2022/06/11 03:30:55;;;;;;;8.00;6.47;;;17.70;99.90;;;;;;5062326;28;20573;-66
2022/06/11 03:33:24;;;;;;;7.23;6.10;;;17.60;99.90;;;;;;5072710;28;20170;-63
2022/06/11 03:35:51;;;;;;;8.20;7.37;;;17.50;99.90;;;;;;5066438;28;20185;-65
2022/06/11 03:38:18;;;;;;;8.63;6.50;;;17.50;99.90;;;;;;5072607;28;20273;-66
2022/06/11 03:40:44;;;;;;;9.57;5.63;;;17.40;99.90;;;;;;5065824;28;20166;-66
2022/06/11 03:43:09;;;;;;;6.67;5.87;;;17.40;99.90;;;;;;5057143;28;20189;-65
2022/06/11 03:45:36;;;;;;;9.33;6.33;;;17.30;99.90;;;;;;5072374;28;20170;-66
2022/06/11 03:48:03;;;;;;;7.03;6.40;;;17.30;99.90;;;;;;5069226;28;20278;-66
2022/06/11 03:50:35;;;;;;;7.30;6.70;;;17.30;99.90;;;;;;5052473;28;20206;-66
2022/06/11 03:53:03;;;;;;;6.67;6.07;;;17.20;99.90;;;;;;5054742;28;20216;-66
2022/06/11 03:55:29;;;;;;;7.10;6.47;;;17.20;99.90;;;;;;5072035;28;20241;-66
2022/06/11 03:57:55;;;;;;;6.73;5.90;;;17.20;99.90;;;;;;5071118;28;20190;-66
2022/06/11 04:03:26;;;;;;;7.47;6.40;;;17.20;99.90;;;;;;5028993;28;20179;-66
2022/06/11 04:05:53;;;;;;;8.27;6.27;;;17.30;99.90;;;;;;5031798;28;20598;-66
2022/06/11 04:08:19;;;;;;;6.63;6.10;;;17.40;99.90;;;;;;5038582;28;20194;-66
2022/06/11 04:10:45;;;;;;;6.60;6.00;;;17.50;99.90;;;;;;5070775;28;20194;-66
2022/06/11 04:13:12;;;;;;;6.23;5.73;;;17.70;99.90;;;;;;5052027;28;20213;-65
2022/06/11 04:15:39;;;;;;;7.00;6.00;;;17.90;99.90;;;;;;5051928;28;20171;-66
2022/06/11 04:18:06;;;;;;;9.37;6.37;;;18.10;99.90;;;;;;5071213;28;20213;-66
2022/06/11 04:20:32;;;;;;;6.60;5.30;;;18.40;99.90;;;;;;5071986;28;20181;-65
2022/06/11 04:23:00;;;;;;;5.70;5.20;;;18.70;99.90;;;;;;5053211;28;20685;-67
2022/06/11 04:25:26;;;;;;;7.03;5.07;;;19.10;99.90;;;;;;5051640;28;20213;-66
2022/06/11 04:27:53;;;;;;;6.20;5.70;;;19.60;99.90;;;;;;5068922;28;20607;-65
2022/06/11 04:30:24;;;;;;;6.90;6.30;;;20.10;99.90;;;;;;5068985;28;20674;-66
2022/06/11 04:32:49;;;;;;;5.73;5.37;;;20.60;99.90;;;;;;5052009;28;20167;-65
2022/06/11 04:35:15;;;;;;;7.33;6.83;;;20.80;99.90;;;;;;5052655;28;20221;-65
2022/06/11 04:37:41;;;;;;;6.27;5.67;;;20.90;99.90;;;;;;5071551;28;20182;-64
2022/06/11 04:40:10;;;;;;;5.90;5.50;;;21.00;99.90;;;;;;5059035;28;20198;-65
2022/06/11 04:42:36;;;;;;;7.43;6.60;;;21.00;99.90;;;;;;5051586;28;20163;-64
2022/06/11 04:45:04;;;;;;;9.40;8.53;;;21.00;99.90;;;;;;5062072;28;20541;-65
2022/06/11 04:47:32;;;;;;;13.20;12.37;;;21.00;99.90;;;;;;5071401;28;20654;-64
2022/06/11 04:50:00;;;;;;;8.77;8.13;;;21.10;99.90;;;;;;5060747;28;20690;-65
2022/06/11 04:52:26;;;;;;;6.57;5.97;;;21.00;99.90;;;;;;5051410;28;20163;-64
2022/06/11 04:54:52;;;;;;;6.17;5.67;;;21.10;99.90;;;;;;5059414;28;20244;-64
2022/06/11 04:57:20;;;;;;;6.53;5.60;;;21.10;99.90;;;;;;5071315;28;20186;-65
2022/06/11 04:59:46;;;;;;;6.33;5.73;;;21.00;99.90;;;;;;5064121;28;20722;-66
2022/06/11 05:02:11;;;;;;;7.30;6.47;;;21.00;99.90;;;;;;5051302;28;20258;-65
2022/06/11 05:04:37;;;;;;;7.97;7.30;;;20.90;99.90;;;;;;5056024;28;20182;-66
2022/06/11 05:07:03;;;;;;;7.30;6.80;;;20.90;99.90;;;;;;5071351;28;20186;-65
2022/06/11 05:09:30;;;;;;;12.10;11.27;;;20.90;99.90;;;;;;5067538;28;20203;-65
2022/06/11 05:11:57;;;;;;;10.70;10.00;;;20.90;99.90;;;;;;5051254;28;20170;-66
2022/06/11 05:14:22;;;;;;;7.97;6.90;;;21.00;99.90;;;;;;5052298;28;20540;-65
2022/06/11 05:16:48;;;;;;;6.00;5.50;;;21.00;99.90;;;;;;5071192;28;20182;-65
2022/06/11 05:19:18;;;;;;;6.60;5.83;;;21.10;99.90;;;;;;5071071;28;20170;-65
2022/06/11 05:21:44;;;;;;;6.87;6.27;;;21.00;99.90;;;;;;5031375;28;20206;-66
2022/06/11 05:24:10;;;;;;;7.67;6.90;;;21.00;99.90;;;;;;5030716;28;20191;-66
2022/06/11 05:26:47;;;;;;;7.37;6.77;;;21.10;99.90;;;;;;5068767;28;20202;-66
2022/06/11 05:29:26;;;;;;;5.75;5.20;;;21.30;99.90;;;;;;5070951;28;20201;-65
2022/06/11 05:31:52;;;;;;;5.80;5.30;;;21.40;99.90;;;;;;5068995;28;20202;-65
2022/06/11 05:34:19;;;;;;;6.40;5.20;;;21.40;99.90;;;;;;5070939;28;20166;-66
2022/06/11 05:36:46;;;;;;;6.43;5.70;;;21.50;99.90;;;;;;5052353;28;20206;-65
2022/06/11 05:39:12;;;;;;;5.47;4.97;;;21.60;99.90;;;;;;5050971;28;20171;-65
2022/06/11 05:41:37;;;;;;;9.07;7.27;;;21.70;99.90;;;;;;5067727;28;20550;-66
2022/06/11 05:44:03;;;;;;;7.20;5.23;;;21.80;99.90;;;;;;5071109;28;20181;-64
2022/06/11 05:46:31;;;;;;;7.43;5.73;;;21.80;99.90;;;;;;5055490;28;20205;-65
2022/06/11 05:49:01;;;;;;;6.43;5.93;;;21.70;99.90;;;;;;5051242;28;20179;-64
2022/06/11 05:51:32;;;;;;;6.63;6.13;;;21.80;99.90;;;;;;5064930;28;20641;-65
2022/06/11 05:54:01;;;;;;;5.25;4.82;;;21.70;99.90;;;;;;5070426;28;20174;-65
2022/06/11 05:56:28;;;;;;;8.70;7.80;;;21.60;99.90;;;;;;5056951;28;20325;-66
2022/06/11 05:58:58;;;;;;;6.20;5.70;;;21.70;99.90;;;;;;5060323;28;20573;-65
2022/06/11 06:01:27;;;;;;;5.70;5.28;;;21.80;99.90;;;;;;5071482;28;20175;-65
2022/06/11 06:03:53;;;;;;;7.32;6.65;;;21.90;99.90;;;;;;5065294;28;20177;-65
2022/06/11 06:06:18;;;;;;;5.82;5.22;;;21.90;99.90;;;;;;5054369;28;20282;-65
2022/06/11 06:08:44;;;;;;;6.90;6.37;;;22.00;99.90;;;;;;5061501;28;20189;-66
2022/06/11 06:11:11;;;;;;;5.70;5.28;;;22.20;99.90;;;;;;5074474;28;20197;-66
2022/06/11 06:13:45;;;;;;;6.93;4.88;;;22.40;99.90;;;;;;5067338;28;20178;-66
2022/06/11 06:16:11;;;;;;;6.30;4.95;;;22.60;99.90;;;;;;5040195;28;20167;-66
2022/06/11 06:18:37;;;;;;;6.03;5.30;;;22.80;99.90;;;;;;5055454;28;20178;-65
2022/06/11 06:21:04;;;;;;;5.22;4.72;;;23.20;99.90;;;;;;5054367;28;20199;-65
2022/06/11 06:23:32;;;;;;;6.28;5.20;;;23.40;99.90;;;;;;5057113;28;20279;-66
2022/06/11 06:25:57;;;;;;;6.03;5.43;;;23.60;99.90;;;;;;5072468;28;20181;-65
2022/06/11 06:28:23;;;;;;;11.45;5.40;;;23.60;99.90;;;;;;5052428;28;20643;-65
2022/06/11 06:30:49;;;;;;;8.98;4.68;;;23.70;99.90;;;;;;5034027;28;20206;-65
2022/06/11 06:33:15;;;;;;;7.45;4.97;;;23.80;99.90;;;;;;5033854;28;20172;-65
2022/06/11 06:35:40;;;;;;;8.57;4.95;;;23.90;99.90;;;;;;5033691;28;20258;-65
2022/06/11 06:38:06;;;;;;;5.35;4.43;;;23.90;99.90;;;;;;5051552;28;20721;-66
2022/06/11 06:40:32;;;;;;;5.07;4.57;;;24.10;99.90;;;;;;5053823;28;20231;-64
2022/06/11 06:42:58;;;;;;;5.93;3.67;;;24.40;99.90;;;;;;5069184;28;20186;-65
2022/06/11 06:45:24;;;;;;;4.13;3.83;;;24.60;99.90;;;;;;5073531;28;20638;-65
2022/06/11 06:47:49;;;;;;;4.38;4.07;;;24.80;99.90;;;;;;5059735;28;20202;-65
2022/06/11 06:50:15;;;;;;;5.38;3.78;;;25.00;99.90;;;;;;5053351;28;20285;-65
2022/06/11 06:52:41;;;;;;;4.13;3.78;;;25.10;99.90;;;;;;5054594;28;20183;-65
2022/06/11 06:55:07;;;;;;;5.22;4.70;;;24.90;99.90;;;;;;5053143;28;20592;-65
2022/06/11 06:57:33;;;;;;;3.75;3.50;;;24.60;99.90;;;;;;5054341;28;20665;-65
2022/06/11 07:00:01;;;;;;;4.05;3.75;;;24.50;99.90;;;;;;5058887;28;20187;-66
2022/06/11 07:02:26;;;;;;;4.35;3.97;;;24.40;99.90;;;;;;5073322;28;20186;-65
2022/06/11 07:04:52;;;;;;;4.30;4.00;;;24.40;99.90;;;;;;5071282;28;20175;-65
2022/06/11 07:07:19;;;;;;;3.88;3.63;;;24.10;99.90;;;;;;5071957;28;20212;-65
2022/06/11 07:09:45;;;;;;;4.35;4.05;;;24.00;99.90;;;;;;5070897;28;20626;-64
2022/06/11 07:12:11;;;;;;;4.50;4.07;;;24.10;99.90;;;;;;5053238;28;20190;-65
2022/06/11 07:14:37;;;;;;;7.43;4.18;;;24.30;99.90;;;;;;5052555;28;20175;-66
2022/06/11 07:17:07;;;;;;;7.78;4.07;;;24.60;99.90;;;;;;5053568;28;20203;-66
2022/06/11 07:19:39;;;;;;;3.97;3.67;;;24.90;99.90;;;;;;5052945;28;20214;-66
2022/06/11 07:22:26;;;;;;;3.85;3.50;;;24.90;99.90;;;;;;5032904;28;20176;-66
2022/06/11 07:24:52;;;;;;;4.13;3.72;;;25.10;99.90;;;;;;5036854;28;20167;-66
2022/06/11 07:27:23;;;;;;;5.88;4.00;;;24.90;99.90;;;;;;5072535;28;20209;-65
2022/06/11 07:29:54;;;;;;;4.70;3.78;;;25.00;99.90;;;;;;5071639;28;20205;-64
2022/06/11 07:32:22;;;;;;;5.40;3.50;;;25.40;99.90;;;;;;5052724;28;20217;-65
2022/06/11 07:34:48;;;;;;;3.95;3.65;;;25.70;99.90;;;;;;5052498;28;20171;-66
2022/06/11 07:37:14;;;;;;;4.72;4.13;;;25.70;99.90;;;;;;5032734;28;20186;-65
2022/06/11 07:39:40;;;;;;;4.55;4.25;;;25.60;99.90;;;;;;5033157;28;20643;-65
2022/06/11 07:42:07;;;;;;;4.30;4.00;;;25.40;99.90;;;;;;5069569;28;20193;-64
2022/06/11 07:44:34;;;;;;;6.40;3.80;;;25.20;99.90;;;;;;5072933;28;20178;-64
2022/06/11 07:46:59;;;;;;;4.50;4.20;;;25.50;99.90;;;;;;5070820;28;20202;-65
2022/06/11 07:49:25;;;;;;;4.32;3.95;;;25.80;99.90;;;;;;5072244;28;20210;-67
2022/06/11 07:51:51;;;;;;;4.28;3.80;;;26.00;99.90;;;;;;5070784;28;20227;-67
2022/06/11 07:54:17;;;;;;;3.65;3.42;;;26.10;99.90;;;;;;5071951;28;20178;-67
2022/06/11 07:56:42;;;;;;;3.92;3.63;;;26.40;99.90;;;;;;5058875;28;20206;-65
2022/06/11 07:59:09;;;;;;;3.38;3.17;;;26.80;99.90;;;;;;5052215;28;20577;-65
2022/06/11 08:01:34;;;;;;;3.78;3.47;;;27.40;99.90;;;;;;5063355;28;20582;-65
2022/06/11 08:04:00;;;;;;;4.45;4.15;;;27.70;99.90;;;;;;5065780;28;20214;-67
2022/06/11 08:06:25;;;;;;;4.30;3.75;;;27.40;99.90;;;;;;5071913;28;20186;-67
2022/06/11 08:08:52;;;;;;;3.38;3.13;;;27.20;99.90;;;;;;5063582;28;20164;-66
2022/06/11 08:11:18;;;;;;;3.90;3.42;;;27.40;99.90;;;;;;5051849;28;20206;-67
2022/06/11 08:13:43;;;;;;;4.00;3.60;;;27.60;99.90;;;;;;5052671;28;20174;-67
2022/06/11 08:16:10;;;;;;;4.65;3.58;;;27.70;99.90;;;;;;5051988;28;20167;-66
2022/06/11 08:18:37;;;;;;;3.50;3.20;;;28.20;99.90;;;;;;5054081;28;20281;-65
2022/06/11 08:21:03;;;;;;;3.30;3.03;;;28.50;99.90;;;;;;5051318;28;20175;-67
2022/06/11 08:23:28;;;;;;;3.80;3.50;;;28.80;99.90;;;;;;5052014;28;20654;-67
2022/06/11 08:25:54;;;;;;;4.25;3.95;;;28.90;99.90;;;;;;5050796;28;20175;-66
2022/06/11 08:28:21;;;;;;;3.65;3.35;;;28.50;99.90;;;;;;5052493;28;20264;-67
2022/06/11 08:30:47;;;;;;;5.55;3.80;;;28.70;99.90;;;;;;5051503;28;20203;-65
2022/06/11 08:33:13;;;;;;;4.80;4.15;;;28.60;99.90;;;;;;5056606;28;20663;-66
2022/06/11 08:35:38;;;;;;;4.78;4.30;;;28.20;99.90;;;;;;5058345;28;20638;-65
2022/06/11 08:38:05;;;;;;;4.90;4.15;;;28.30;99.90;;;;;;5051658;28;20205;-65
2022/06/11 08:40:32;;;;;;;4.10;3.70;;;28.50;99.90;;;;;;5051471;28;20179;-65
2022/06/11 08:43:14;;;;;;;4.85;4.35;;;28.20;99.90;;;;;;5066949;28;20177;-65
2022/06/11 08:45:51;;;;;;;5.05;4.65;;;27.40;99.90;;;;;;5071169;28;20223;-65
2022/06/11 08:48:31;;;;;;;6.72;4.53;;;26.80;99.90;;;;;;5053089;28;20213;-67
2022/06/11 08:51:27;;;;;;;4.30;4.00;;;26.70;99.90;;;;;;5051323;28;20203;-66
2022/06/11 08:53:58;;;;;;;4.70;4.30;;;26.60;99.90;;;;;;5030975;28;20263;-66
2022/06/11 08:56:52;;;;;;;4.55;4.15;;;26.90;99.90;;;;;;5070779;28;20553;-67
2022/06/11 08:59:34;;;;;;;4.45;4.15;;;26.90;99.90;;;;;;5069098;28;20522;-66
2022/06/11 09:02:37;;;;;;;5.75;3.83;;;26.10;99.90;;;;;;5050818;28;20545;-66
2022/06/11 09:05:21;;;;;;;4.40;4.10;;;25.40;99.90;;;;;;5058532;28;20185;-64
2022/06/11 09:08:24;;;;;;;5.45;3.83;;;25.10;99.90;;;;;;5071126;28;20193;-66
2022/06/11 09:11:14;;;;;;;4.13;3.72;;;24.90;99.90;;;;;;5057177;28;20676;-65
2022/06/11 09:14:03;;;;;;;5.07;3.97;;;24.80;99.90;;;;;;5050775;28;20175;-63
2022/06/11 09:16:43;;;;;;;4.57;3.58;;;25.20;99.90;;;;;;5069237;28;20194;-65
2022/06/11 09:19:31;;;;;;;3.50;3.30;;;26.20;99.90;;;;;;5070737;28;20195;-65
2022/06/11 09:22:21;;;;;;;3.70;3.50;;;26.80;99.90;;;;;;5031015;28;20255;-65
2022/06/11 09:25:13;;;;;;;4.00;3.70;;;26.90;99.90;;;;;;5037202;28;20174;-65
2022/06/11 09:27:45;;;;;;;4.60;4.20;;;26.70;99.90;;;;;;5070940;28;20202;-64
2022/06/11 09:30:24;;;;;;;3.75;3.38;;;26.70;99.90;;;;;;5064267;28;20198;-65
2022/06/11 09:32:51;;;;;;;5.30;3.90;;;26.70;99.90;;;;;;5050891;28;20206;-65
2022/06/11 09:35:39;;;;;;;3.65;3.38;;;26.60;99.90;;;;;;5051324;28;20195;-65
2022/06/11 09:38:34;;;;;;;4.10;3.80;;;26.80;99.90;;;;;;5054448;28;20194;-65
2022/06/11 09:41:11;;;;;;;4.22;3.83;;;27.10;99.90;;;;;;5056295;28;20645;-65
2022/06/11 09:43:52;;;;;;;4.45;3.72;;;27.10;99.90;;;;;;5055374;28;20228;-65
2022/06/11 09:46:23;;;;;;;3.95;3.65;;;27.00;99.90;;;;;;5068356;28;20587;-64
2022/06/11 09:49:00;;;;;;;4.75;3.20;;;27.30;99.90;;;;;;5073469;28;20193;-65
2022/06/11 09:51:31;;;;;;;5.15;3.70;;;27.40;99.90;;;;;;5074973;28;20532;-65
2022/06/11 09:54:22;;;;;;;4.03;3.72;;;27.60;99.90;;;;;;5070356;28;20676;-64
2022/06/11 09:57:09;;;;;;;4.05;3.63;;;27.70;99.90;;;;;;5030948;28;20245;-65
2022/06/11 09:59:44;;;;;;;5.05;4.10;;;27.60;99.90;;;;;;5062825;28;20264;-65
2022/06/11 10:02:30;;;;;;;3.85;3.53;;;27.60;99.90;;;;;;5073708;28;20181;-64
2022/06/11 10:04:59;;;;;;;5.43;4.00;;;28.00;99.90;;;;;;5063156;28;20183;-65
2022/06/11 10:07:32;;;;;;;5.00;3.38;;;28.20;99.90;;;;;;5054229;28;20203;-65
2022/06/11 10:10:05;;;;;;;4.00;3.67;;;28.90;99.90;;;;;;5064492;28;20292;-65
2022/06/11 10:12:36;;;;;;;3.67;3.20;;;29.70;99.90;;;;;;5074108;28;20260;-64
2022/06/11 10:15:17;;;;;;;3.28;2.90;;;30.30;99.90;;;;;;5063282;28;20240;-65
2022/06/11 10:17:54;;;;;;;3.25;3.05;;;30.90;99.90;;;;;;5063715;28;20202;-65
2022/06/11 10:20:36;;;;;;;3.38;3.08;;;31.60;99.90;;;;;;5074087;28;20178;-64
2022/06/11 10:23:12;;;;;;;3.90;3.05;;;32.50;99.90;;;;;;5062075;28;20218;-65
2022/06/11 10:25:46;;;;;;;3.60;3.30;;;33.40;99.90;;;;;;5053699;28;20206;-65
2022/06/11 10:28:18;;;;;;;3.70;3.35;;;33.70;99.90;;;;;;5081337;22;20320;-67
2022/06/11 10:30:48;;;;;;;3.78;3.20;;;33.50;99.90;;;;;;5052293;28;20202;-68
2022/06/11 10:33:38;;;;;;;3.38;2.95;;;33.30;99.90;;;;;;5053903;28;20519;-68
2022/06/11 10:36:14;;;;;;;3.58;3.28;;;33.40;99.90;;;;;;5052557;28;20167;-68
2022/06/11 10:39:01;;;;;;;3.95;3.70;;;32.80;99.90;;;;;;5034081;28;20559;-67
2022/06/11 10:42:11;;;;;;;3.20;3.00;;;31.80;99.90;;;;;;5043341;28;20200;-67
2022/06/11 10:44:40;;;;;;;4.43;3.38;;;31.50;99.90;;;;;;5030856;28;20187;-67
2022/06/11 10:47:34;;;;;;;3.97;3.33;;;31.00;99.90;;;;;;5049128;28;20217;-67
2022/06/11 10:50:07;;;;;;;3.55;3.30;;;30.30;99.90;;;;;;5052612;28;20214;-67
2022/06/11 10:52:43;;;;;;;4.50;3.67;;;30.40;99.90;;;;;;5053650;28;20216;-67
2022/06/11 10:55:13;;;;;;;5.07;3.63;;;30.60;99.90;;;;;;5053054;28;20166;-67
2022/06/11 10:57:41;;;;;;;4.97;4.00;;;30.50;99.90;;;;;;5053533;28;20179;-66
2022/06/11 11:00:13;;;;;;;5.88;3.67;;;30.20;99.90;;;;;;5053266;28;20206;-67
2022/06/11 11:02:48;;;;;;;5.07;3.80;;;30.40;99.90;;;;;;5051032;28;20179;-67
2022/06/11 11:05:18;;;;;;;4.90;4.50;;;30.50;99.90;;;;;;5051789;28;20590;-67
2022/06/11 11:07:43;;;;;;;4.20;3.90;;;30.50;99.90;;;;;;5053451;28;20191;-67
2022/06/11 11:10:21;;;;;;;5.82;4.22;;;30.20;99.90;;;;;;5052964;28;20206;-67
2022/06/11 11:12:48;;;;;;;4.03;3.72;;;30.20;99.90;;;;;;5052044;28;20257;-66
2022/06/11 11:15:18;;;;;;;5.28;4.38;;;30.70;99.90;;;;;;5052552;28;20194;-67
2022/06/11 11:17:51;;;;;;;5.63;3.50;;;30.80;99.90;;;;;;5052794;28;20183;-67
2022/06/11 11:20:35;;;;;;;4.25;3.85;;;31.00;99.90;;;;;;5051252;28;20248;-68
2022/06/11 11:23:23;;;;;;;4.00;3.67;;;31.40;99.90;;;;;;5051721;28;20173;-67
2022/06/11 11:26:05;;;;;;;3.80;3.50;;;31.20;99.90;;;;;;5052746;28;20552;-67
2022/06/11 11:28:45;;;;;;;4.15;3.80;;;30.70;99.90;;;;;;5052830;28;20206;-68
2022/06/11 11:31:39;;;;;;;4.38;3.85;;;30.90;99.90;;;;;;5052381;28;20264;-68
2022/06/11 11:34:23;;;;;;;4.53;4.13;;;31.30;99.90;;;;;;5050519;28;20182;-68
2022/06/11 11:36:49;;;;;;;4.47;3.80;;;31.80;99.90;;;;;;5051584;28;20570;-67
2022/06/11 11:39:16;;;;;;;4.22;3.92;;;32.50;99.90;;;;;;5052347;28;20672;-67
2022/06/11 11:42:01;;;;;;;4.10;3.80;;;32.50;99.90;;;;;;5052880;28;20174;-67
2022/06/11 11:44:27;;;;;;;4.47;4.18;;;31.40;99.90;;;;;;5051860;28;20187;-67
2022/06/11 11:47:00;;;;;;;4.75;4.30;;;30.30;99.90;;;;;;5052661;28;20274;-67
2022/06/11 11:49:29;;;;;;;6.65;4.28;;;29.00;99.90;;;;;;5050868;28;20207;-67
2022/06/11 11:52:22;;;;;;;5.40;5.00;;;28.80;99.90;;;;;;5052639;28;20193;-67
2022/06/11 11:55:11;;;;;;;4.93;4.55;;;28.80;99.90;;;;;;5050828;28;20187;-67
2022/06/11 11:57:38;;;;;;;4.88;4.47;;;29.40;99.90;;;;;;5052517;28;20197;-68
2022/06/11 12:00:28;;;;;;;4.55;4.15;;;29.80;99.90;;;;;;5051775;28;20182;-68
2022/06/11 12:02:59;;;;;;;5.30;4.32;;;30.00;99.90;;;;;;5052178;28;20610;-66
2022/06/11 12:05:30;;;;;;;4.28;3.90;;;30.20;99.90;;;;;;5051857;28;20206;-68
2022/06/11 12:07:58;;;;;;;3.70;3.40;;;30.60;99.90;;;;;;5052224;28;20229;-67
2022/06/11 12:10:39;;;;;;;4.28;3.97;;;30.80;99.90;;;;;;5051874;28;20199;-67
2022/06/11 12:13:29;;;;;;;4.43;4.03;;;30.60;99.90;;;;;;5051874;28;20171;-68
2022/06/11 12:16:01;;;;;;;4.10;3.70;;;30.60;99.90;;;;;;5052126;28;20167;-68
2022/06/11 12:18:49;;;;;;;6.75;3.50;;;30.80;99.90;;;;;;5051517;28;20468;-67
2022/06/11 12:21:25;;;;;;;4.18;3.88;;;30.80;99.90;;;;;;5051175;28;20249;-67
2022/06/11 12:24:14;;;;;;;3.90;3.55;;;30.20;99.90;;;;;;5051774;28;20174;-68
2022/06/11 12:26:52;;;;;;;4.18;3.88;;;30.10;99.90;;;;;;5051458;28;20182;-66
2022/06/11 12:29:42;;;;;;;4.80;4.30;;;29.70;99.90;;;;;;5051646;28;20224;-67
2022/06/11 12:32:26;;;;;;;6.88;3.60;;;29.50;99.90;;;;;;5051514;28;20239;-67
2022/06/11 12:34:53;;;;;;;4.22;3.40;;;29.60;99.90;;;;;;5051201;28;20178;-68
2022/06/11 12:37:42;;;;;;;4.50;3.95;;;29.60;99.90;;;;;;5051487;28;20277;-67
2022/06/11 12:40:23;;;;;;;4.15;3.85;;;29.30;99.90;;;;;;5039860;28;20735;-68
2022/06/11 12:43:21;;;;;;;4.75;4.13;;;29.40;99.90;;;;;;5051849;28;20174;-67
2022/06/11 12:46:13;;;;;;;4.25;3.50;;;29.60;99.90;;;;;;5048242;28;20200;-67
2022/06/11 12:48:44;;;;;;;4.72;3.65;;;30.00;99.90;;;;;;5051195;28;20671;-67
2022/06/11 12:51:25;;;;;;;3.65;3.17;;;30.50;99.90;;;;;;5046291;28;20203;-66
2022/06/11 12:53:58;;;;;;;3.97;3.30;;;30.50;99.90;;;;;;5050167;28;20197;-67
2022/06/11 12:56:46;;;;;;;5.28;4.03;;;30.30;99.90;;;;;;5040862;28;20201;-67
2022/06/11 12:59:17;;;;;;;5.88;3.92;;;30.60;99.90;;;;;;5036401;28;20199;-67
2022/06/11 13:02:03;;;;;;;3.67;3.35;;;30.80;99.90;;;;;;5031525;28;20176;-67
2022/06/11 13:04:48;;;;;;;6.00;3.50;;;30.30;99.90;;;;;;5047048;28;20258;-67
2022/06/11 13:07:29;;;;;;;3.28;3.08;;;29.90;99.90;;;;;;5031107;28;20187;-67
2022/06/11 13:09:54;;;;;;;3.53;3.20;;;30.20;99.90;;;;;;5043214;28;20198;-68
2022/06/11 13:12:45;;;;;;;3.55;3.25;;;30.70;99.90;;;;;;5050284;28;20178;-67
2022/06/11 13:15:36;;;;;;;3.08;2.80;;;31.30;99.90;;;;;;5050082;28;20654;-67
2022/06/11 13:18:30;;;;;;;3.10;2.80;;;31.10;99.90;;;;;;5047514;28;20248;-67